createdAt,value
2018-09-14T00:01:56.542Z,100509.14
2018-09-14T00:04:27.517Z,100510.52
2018-09-14T00:07:05.236Z,100521.86
2018-09-14T00:09:36.404Z,100520.30
2018-09-14T00:12:07.689Z,100521.36
2018-09-14T00:14:38.570Z,100516.95
2018-09-14T00:17:09.579Z,100514.33
2018-09-14T00:19:40.516Z,100515.33
2018-09-14T00:22:11.516Z,100518.45
2018-09-14T00:24:43.212Z,100508.47
2018-09-14T00:27:14.399Z,100512.95
2018-09-14T00:29:45.512Z,100504.86
2018-09-14T00:32:16.524Z,100504.15
2018-09-14T00:34:47.506Z,100505.52
2018-09-14T00:37:18.503Z,100501.23
2018-09-14T00:39:49.490Z,100505.67
2018-09-14T00:42:20.531Z,100503.12
2018-09-14T00:44:51.806Z,100506.38
2018-09-14T00:47:22.625Z,100514.31
2018-09-14T00:49:53.512Z,100512.03
2018-09-14T00:52:24.526Z,100509.78
2018-09-14T00:54:55.496Z,100508.88
2018-09-14T00:57:26.513Z,100515.59
2018-09-14T00:59:57.521Z,100513.30
2018-09-14T01:02:28.480Z,100515.20
2018-09-14T01:04:59.506Z,100515.38
2018-09-14T01:07:30.504Z,100513.58
2018-09-14T01:10:01.510Z,100507.55
2018-09-14T01:12:32.522Z,100505.00
2018-09-14T01:15:03.540Z,100515.29
2018-09-14T01:17:34.519Z,100513.16
2018-09-14T01:20:05.705Z,100517.27
2018-09-14T01:22:36.561Z,100511.41
2018-09-14T01:25:07.513Z,100508.09
2018-09-14T01:27:38.522Z,100498.97
2018-09-14T01:30:09.521Z,100503.56
2018-09-14T01:32:40.506Z,100503.72
2018-09-14T01:35:16.681Z,100503.83
2018-09-14T01:37:47.587Z,100509.96
2018-09-14T01:40:18.537Z,100509.43
2018-09-14T01:42:49.513Z,100505.00
2018-09-14T01:45:20.490Z,100511.66
2018-09-14T01:47:51.514Z,100509.73
2018-09-14T01:50:22.493Z,100510.87
2018-09-14T01:52:53.521Z,100509.91
2018-09-14T01:55:24.494Z,100507.30
2018-09-14T01:57:55.525Z,100507.78
2018-09-14T02:00:26.485Z,100504.20
2018-09-14T02:02:57.508Z,100503.02
2018-09-14T02:05:28.490Z,100502.66
2018-09-14T02:07:59.546Z,100504.99
2018-09-14T02:10:30.500Z,100496.86
2018-09-14T02:13:01.526Z,100502.03
2018-09-14T02:15:32.484Z,100496.69
2018-09-14T02:18:03.523Z,100495.62
2018-09-14T02:20:34.518Z,100488.11
2018-09-14T02:23:05.503Z,100492.05
2018-09-14T02:25:36.546Z,100486.09
2018-09-14T02:28:07.788Z,100477.08
2018-09-14T02:30:38.637Z,100480.49
2018-09-14T02:33:09.561Z,100470.85
2018-09-14T02:35:40.501Z,100468.61
2018-09-14T02:38:11.501Z,100472.88
2018-09-14T02:40:42.489Z,100475.27
2018-09-14T02:43:13.516Z,100480.55
2018-09-14T02:45:44.504Z,100491.15
2018-09-14T02:48:15.562Z,100486.47
2018-09-14T02:50:46.497Z,100485.40
2018-09-14T02:53:17.528Z,100486.14
2018-09-14T02:55:48.501Z,100488.39
2018-09-14T02:58:19.508Z,100491.15
2018-09-14T03:00:51.192Z,100492.48
2018-09-14T03:03:22.573Z,100499.09
2018-09-14T03:05:53.506Z,100492.70
2018-09-14T03:08:24.497Z,100491.52
2018-09-14T03:10:55.486Z,100489.39
2018-09-14T03:13:26.514Z,100488.39
2018-09-14T03:15:57.522Z,100487.42
2018-09-14T03:18:28.529Z,100484.50
2018-09-14T03:20:59.494Z,100488.37
2018-09-14T03:23:30.538Z,100485.97
2018-09-14T03:26:01.497Z,100484.33
2018-09-14T03:28:32.517Z,100485.83
2018-09-14T03:31:03.514Z,100486.50
2018-09-14T03:33:34.533Z,100486.61
2018-09-14T03:36:05.523Z,100489.60
2018-09-14T03:38:36.521Z,100491.95
2018-09-14T03:41:07.519Z,100493.98
2018-09-14T03:43:38.511Z,100495.16
2018-09-14T03:46:09.510Z,100493.98
2018-09-14T03:48:40.522Z,100490.31
2018-09-14T03:51:11.490Z,100493.03
2018-09-14T03:53:42.509Z,100498.08
2018-09-14T03:56:13.491Z,100495.16
2018-09-14T03:58:44.496Z,100497.92
2018-09-14T04:01:15.493Z,100492.11
2018-09-14T04:03:46.509Z,100493.54
2018-09-14T04:06:17.524Z,100496.63
2018-09-14T04:08:48.487Z,100492.70
2018-09-14T04:11:19.477Z,100493.88
2018-09-14T04:13:50.529Z,100493.64
2018-09-14T04:16:21.498Z,100497.64
2018-09-14T04:18:58.508Z,100494.55
2018-09-14T04:21:30.281Z,100497.91
2018-09-14T04:24:01.387Z,100506.53
2018-09-14T04:26:32.462Z,100507.02
2018-09-14T04:29:03.513Z,100507.86
2018-09-14T04:31:34.500Z,100511.77
2018-09-14T04:34:05.512Z,100512.55
2018-09-14T04:36:36.513Z,100511.64
2018-09-14T04:39:11.027Z,100520.59
2018-09-14T04:41:42.294Z,100518.19
2018-09-14T04:44:13.450Z,100519.16
2018-09-14T04:46:44.508Z,100516.64
2018-09-14T04:49:15.534Z,100514.83
2018-09-14T04:51:46.480Z,100521.64
2018-09-14T04:54:17.553Z,100522.27
2018-09-14T04:56:48.482Z,100528.38
2018-09-14T04:59:19.495Z,100526.87
2018-09-14T05:01:50.515Z,100520.11
2018-09-14T05:04:21.519Z,100516.91
2018-09-14T05:06:52.522Z,100520.88
2018-09-14T05:09:23.508Z,100514.86
2018-09-14T05:11:54.493Z,100521.09
2018-09-14T05:14:25.514Z,100519.91
2018-09-14T05:16:56.620Z,100524.97
2018-09-14T05:19:27.503Z,100525.88
2018-09-14T05:21:58.504Z,100523.51
2018-09-14T05:24:29.578Z,100528.14
2018-09-14T05:27:00.554Z,100536.70
2018-09-14T05:29:31.514Z,100532.28
2018-09-14T05:32:02.518Z,100527.47
2018-09-14T05:34:33.554Z,100531.05
2018-09-14T05:37:04.534Z,100535.73
2018-09-14T05:39:35.518Z,100532.68
2018-09-14T05:42:06.561Z,100534.89
2018-09-14T05:44:37.509Z,100533.70
2018-09-14T05:47:09.024Z,100538.70
2018-09-14T05:49:40.378Z,100542.17
2018-09-14T05:52:11.529Z,100531.38
2018-09-14T05:54:42.496Z,100543.27
2018-09-14T05:57:13.480Z,100542.78
2018-09-14T05:59:44.509Z,100540.12
2018-09-14T06:02:15.490Z,100535.16
2018-09-14T06:04:46.501Z,100537.64
2018-09-14T06:07:17.498Z,100539.78
2018-09-14T06:09:49.557Z,100543.27
2018-09-14T06:12:20.676Z,100542.27
2018-09-14T06:14:51.570Z,100550.38
2018-09-14T06:17:22.573Z,100552.94
2018-09-14T06:19:53.519Z,100551.50
2018-09-14T06:22:24.599Z,100555.91
2018-09-14T06:24:55.481Z,100558.36
2018-09-14T06:27:26.507Z,100558.78
2018-09-14T06:29:57.577Z,100560.62
2018-09-14T06:32:28.877Z,100564.28
2018-09-14T06:35:00.387Z,100568.28
2018-09-14T06:37:31.583Z,100567.95
2018-09-14T06:40:02.531Z,100567.02
2018-09-14T06:42:33.492Z,100573.33
2018-09-14T06:45:04.549Z,100569.52
2018-09-14T06:47:35.482Z,100564.27
2018-09-14T06:50:06.597Z,100552.59
2018-09-14T06:52:37.510Z,100545.91
2018-09-14T06:55:08.525Z,100532.02
2018-09-14T06:57:39.510Z,100531.75
2018-09-14T07:00:10.728Z,100532.66
2018-09-14T07:02:41.571Z,100539.44
2018-09-14T07:05:12.481Z,100541.92
2018-09-14T07:07:43.483Z,100543.22
2018-09-14T07:10:14.514Z,100550.94
2018-09-14T07:12:45.476Z,100550.77
2018-09-14T07:15:16.484Z,100556.48
2018-09-14T07:17:47.469Z,100561.61
2018-09-14T07:20:18.511Z,100574.45
2018-09-14T07:22:49.500Z,100567.50
2018-09-14T07:25:20.552Z,100571.61
2018-09-14T07:27:51.568Z,100570.58
2018-09-14T07:30:22.531Z,100574.65
2018-09-14T07:32:53.510Z,100575.30
2018-09-14T07:35:24.530Z,100582.63
2018-09-14T07:37:55.499Z,100585.04
2018-09-14T07:40:26.603Z,100579.40
2018-09-14T07:42:57.619Z,100584.81
2018-09-14T07:45:28.588Z,100585.91
2018-09-14T07:47:59.652Z,100587.27
2018-09-14T07:53:49.398Z,100588.73
2018-09-14T07:56:20.549Z,100598.72
2018-09-14T07:58:51.579Z,100594.97
2018-09-14T08:01:22.632Z,100597.59
2018-09-14T08:03:53.617Z,100602.80
2018-09-14T08:06:24.599Z,100601.92
2018-09-14T08:08:55.581Z,100606.15
2018-09-14T08:11:26.605Z,100603.66
2018-09-14T08:13:57.582Z,100601.75
2018-09-14T08:16:28.586Z,100600.02
2018-09-14T08:18:59.622Z,100602.46
2018-09-14T08:21:30.652Z,100599.81
2018-09-14T08:24:01.565Z,100604.00
2018-09-14T08:26:32.520Z,100597.73
2018-09-14T08:29:03.547Z,100603.45
2018-09-14T08:31:34.563Z,100607.16
2018-09-14T08:34:05.597Z,100604.80
2018-09-14T08:36:36.664Z,100611.15
2018-09-14T08:39:12.502Z,100609.02
2018-09-14T08:41:43.547Z,100608.66
2018-09-14T08:44:14.546Z,100604.70
2018-09-14T08:46:45.641Z,100602.75
2018-09-14T08:49:16.619Z,100601.77
2018-09-14T08:51:47.608Z,100604.95
2018-09-14T08:54:18.581Z,100605.94
2018-09-14T08:56:49.554Z,100604.28
2018-09-14T08:59:20.483Z,100609.13
2018-09-14T09:01:51.554Z,100609.94
2018-09-14T09:04:22.606Z,100612.64
2018-09-14T09:06:53.588Z,100603.61
2018-09-14T09:09:24.583Z,100607.27
2018-09-14T09:11:55.567Z,100611.62
2018-09-14T09:14:26.537Z,100602.41
2018-09-14T09:16:57.589Z,100605.59
2018-09-14T09:19:28.719Z,100601.92
2018-09-14T09:21:59.653Z,100597.33
2018-09-14T09:24:30.611Z,100583.18
2018-09-14T09:27:02.042Z,100589.41
2018-09-14T09:29:33.485Z,100588.34
2018-09-14T09:32:04.522Z,100582.14
2018-09-14T09:34:35.509Z,100581.84
2018-09-14T09:37:06.509Z,100587.08
2018-09-14T09:39:37.493Z,100577.99
2018-09-14T09:42:08.546Z,100582.75
2018-09-14T09:44:39.581Z,100577.80
2018-09-14T09:47:10.635Z,100574.33
2018-09-14T09:49:41.566Z,100574.59
2018-09-14T09:52:13.409Z,100582.75
2018-09-14T09:54:44.509Z,100576.64
2018-09-14T09:57:15.545Z,100575.83
2018-09-14T09:59:46.549Z,100580.42
2018-09-14T10:02:22.764Z,100580.22
2018-09-14T10:04:58.633Z,100578.30
2018-09-14T10:07:29.561Z,100571.48
2018-09-14T10:10:00.522Z,100576.59
2018-09-14T10:12:31.577Z,100575.06
2018-09-14T10:15:02.538Z,100566.11
2018-09-14T10:17:33.558Z,100573.77
2018-09-14T10:20:04.679Z,100570.52
2018-09-14T10:22:35.585Z,100570.73
2018-09-14T10:25:06.533Z,100568.64
2018-09-14T10:27:37.543Z,100572.05
2018-09-14T10:30:08.488Z,100570.91
2018-09-14T10:32:39.501Z,100569.33
2018-09-14T10:35:10.528Z,100572.67
2018-09-14T10:37:41.693Z,100567.34
2018-09-14T10:40:13.423Z,100561.06
2018-09-14T10:42:45.331Z,100560.58
2018-09-14T10:45:16.496Z,100563.69
2018-09-14T10:47:52.475Z,100552.42
2018-09-14T10:50:23.498Z,100543.70
2018-09-14T10:52:54.567Z,100538.07
2018-09-14T10:55:25.581Z,100543.80
2018-09-14T10:57:56.586Z,100543.15
2018-09-14T11:00:28.478Z,100540.56
2018-09-14T11:02:59.518Z,100529.54
2018-09-14T11:05:30.583Z,100516.94
2018-09-14T11:08:02.318Z,100520.91
2018-09-14T11:10:33.397Z,100523.31
2018-09-14T11:13:05.494Z,100507.37
2018-09-14T11:15:36.539Z,100514.09
2018-09-14T11:18:07.679Z,100505.39
2018-09-14T11:20:38.875Z,100503.66
2018-09-14T11:23:10.285Z,100499.49
2018-09-14T11:25:41.690Z,100501.28
2018-09-14T11:28:17.564Z,100494.64
2018-09-14T11:30:48.588Z,100496.27
2018-09-14T11:33:19.662Z,100498.59
2018-09-14T11:38:35.595Z,100492.55
2018-09-14T11:43:49.570Z,100487.38
2018-09-14T11:46:21.511Z,100486.08
2018-09-14T11:48:52.699Z,100483.16
2018-09-14T11:51:23.615Z,100475.38
2018-09-14T11:53:54.588Z,100473.38
2018-09-14T11:56:25.592Z,100471.84
2018-09-14T11:58:57.694Z,100474.48
2018-09-14T12:01:30.466Z,100470.00
2018-09-14T12:04:02.294Z,100466.12
2018-09-14T12:06:33.459Z,100476.33
2018-09-14T12:09:07.580Z,100468.77
2018-09-14T12:11:40.012Z,100479.44
2018-09-14T12:14:12.556Z,100475.53
2018-09-14T12:16:44.488Z,100467.00
2018-09-14T12:19:16.723Z,100471.69
2018-09-14T12:21:48.551Z,100462.54
2018-09-14T12:24:20.339Z,100468.64
2018-09-14T12:26:51.394Z,100461.20
2018-09-14T12:29:22.574Z,100459.80
2018-09-14T12:31:53.746Z,100462.03
2018-09-14T12:34:24.642Z,100461.31
2018-09-14T12:36:55.655Z,100457.08
2018-09-14T12:39:26.627Z,100455.56
2018-09-14T12:41:57.686Z,100457.27
2018-09-14T12:44:28.694Z,100448.62
2018-09-14T12:46:59.618Z,100451.13
2018-09-14T12:49:30.766Z,100444.17
2018-09-14T12:52:01.745Z,100448.65
2018-09-14T12:54:32.734Z,100445.24
2018-09-14T12:57:03.613Z,100452.54
2018-09-14T12:59:35.292Z,100448.59
2018-09-14T13:02:06.395Z,100456.75
2018-09-14T13:04:37.665Z,100450.27
2018-09-14T13:07:08.642Z,100454.16
2018-09-14T13:09:39.546Z,100456.34
2018-09-14T13:12:10.600Z,100445.45
2018-09-14T13:14:41.875Z,100458.97
2018-09-14T13:17:13.788Z,100453.06
2018-09-14T13:19:44.738Z,100450.83
2018-09-14T13:22:15.617Z,100446.87
2018-09-14T13:24:47.260Z,100439.52
2018-09-14T13:27:17.437Z,100442.18
2018-09-14T13:29:48.508Z,100440.98
2018-09-14T13:32:19.529Z,100446.05
2018-09-14T13:34:50.625Z,100438.58
2018-09-14T13:37:21.573Z,100432.66
2018-09-14T13:39:52.549Z,100428.11
2018-09-14T13:42:23.576Z,100430.39
2018-09-14T13:44:54.538Z,100427.21
2018-09-14T13:47:25.590Z,100424.77
2018-09-14T13:49:56.721Z,100424.05
2018-09-14T13:52:27.715Z,100418.44
2018-09-14T13:54:58.683Z,100418.05
2018-09-14T13:57:29.576Z,100419.80
2018-09-14T14:00:00.575Z,100409.72
2018-09-14T14:02:31.570Z,100410.88
2018-09-14T14:05:03.494Z,100406.89
2018-09-14T14:07:34.549Z,100399.23
2018-09-14T14:10:05.799Z,100400.50
2018-09-14T14:12:37.199Z,100398.19
2018-09-14T14:15:08.450Z,100399.74
2018-09-14T14:17:39.792Z,100402.70
2018-09-14T14:20:10.689Z,100414.17
2018-09-14T14:22:42.056Z,100411.25
2018-09-14T14:25:13.481Z,100415.41
2018-09-14T14:27:44.771Z,100415.31
2018-09-14T14:30:16.032Z,100409.78
2018-09-14T14:32:47.386Z,100404.38
2018-09-14T14:35:19.048Z,100399.08
2018-09-14T14:37:50.510Z,100392.75
2018-09-14T14:40:21.602Z,100397.37
2018-09-14T14:42:52.569Z,100399.34
2018-09-14T14:45:23.622Z,100392.23
2018-09-14T14:47:54.706Z,100387.50
2018-09-14T14:50:25.619Z,100386.25
2018-09-14T14:52:56.733Z,100382.29
2018-09-14T14:55:27.699Z,100380.93
2018-09-14T14:57:58.602Z,100376.23
2018-09-14T15:00:29.598Z,100377.67
2018-09-14T15:03:00.713Z,100379.56
2018-09-14T15:05:31.851Z,100378.08
2018-09-14T15:08:03.025Z,100368.27
2018-09-14T15:10:34.414Z,100363.54
2018-09-14T15:13:05.527Z,100364.50
2018-09-14T15:15:36.548Z,100367.83
2018-09-14T15:18:07.554Z,100365.17
2018-09-14T15:20:38.567Z,100360.71
2018-09-14T15:23:09.505Z,100359.64
2018-09-14T15:25:40.540Z,100359.50
2018-09-14T15:28:11.497Z,100372.13
2018-09-14T15:30:42.736Z,100367.03
2018-09-14T15:33:13.681Z,100372.13
2018-09-14T15:35:44.497Z,100369.80
2018-09-14T15:38:15.489Z,100370.85
2018-09-14T15:40:46.587Z,100372.23
2018-09-14T15:43:17.502Z,100375.05
2018-09-14T15:45:48.516Z,100370.31
2018-09-14T15:48:19.480Z,100369.13
2018-09-14T15:50:50.473Z,100368.87
2018-09-14T15:53:21.469Z,100370.82
2018-09-14T15:55:52.513Z,100373.55
2018-09-14T15:58:23.562Z,100367.19
2018-09-14T16:00:54.570Z,100369.52
2018-09-14T16:03:25.486Z,100364.25
2018-09-14T16:05:56.528Z,100371.96
2018-09-14T16:08:27.543Z,100368.84
2018-09-14T16:10:59.068Z,100363.77
2018-09-14T16:13:30.769Z,100361.52
2018-09-14T16:16:01.640Z,100367.23
2018-09-14T16:18:32.555Z,100361.80
2018-09-14T16:21:03.527Z,100366.78
2018-09-14T16:23:34.540Z,100360.96
2018-09-14T16:26:05.545Z,100363.66
2018-09-14T16:28:36.537Z,100359.11
2018-09-14T16:31:07.588Z,100361.95
2018-09-14T16:33:38.772Z,100366.32
2018-09-14T16:36:10.375Z,100355.98
2018-09-14T16:38:41.988Z,100364.80
2018-09-14T16:43:11.275Z,100373.16
2018-09-14T16:45:41.381Z,100377.40
2018-09-14T16:48:12.647Z,100374.48
2018-09-14T16:50:43.625Z,100378.39
2018-09-14T16:53:14.639Z,100376.51
2018-09-14T16:55:45.544Z,100382.80
2018-09-14T16:58:16.652Z,100381.22
2018-09-14T17:00:47.503Z,100376.44
2018-09-14T17:03:18.519Z,100381.16
2018-09-14T17:05:49.533Z,100380.75
2018-09-14T17:08:20.502Z,100388.28
2018-09-14T17:10:51.603Z,100385.48
2018-09-14T17:13:22.585Z,100392.36
2018-09-14T17:15:53.501Z,100395.30
2018-09-14T17:18:24.470Z,100394.38
2018-09-14T17:20:55.488Z,100384.64
2018-09-14T17:23:26.536Z,100401.82
2018-09-14T17:25:57.537Z,100400.08
2018-09-14T17:28:28.530Z,100400.97
2018-09-14T17:30:59.642Z,100405.91
2018-09-14T17:33:30.581Z,100404.36
2018-09-14T17:36:01.578Z,100404.31
2018-09-14T17:38:32.663Z,100398.98
2018-09-14T17:41:03.616Z,100399.49
2018-09-14T17:43:34.649Z,100399.69
2018-09-14T17:46:05.695Z,100404.56
2018-09-14T17:48:36.702Z,100404.92
2018-09-14T17:51:07.577Z,100416.78
2018-09-14T17:53:38.512Z,100415.48
2018-09-14T17:56:09.516Z,100415.46
2018-09-14T17:58:40.506Z,100420.00
2018-09-14T18:01:11.497Z,100418.54
2018-09-14T18:03:42.670Z,100410.92
2018-09-14T18:06:14.010Z,100402.67
2018-09-14T18:08:45.421Z,100410.73
2018-09-14T18:11:16.514Z,100411.13
2018-09-14T18:13:47.559Z,100413.95
2018-09-14T18:16:18.523Z,100419.23
2018-09-14T18:18:49.512Z,100420.67
2018-09-14T18:21:20.530Z,100420.36
2018-09-14T18:23:51.494Z,100426.05
2018-09-14T18:26:22.544Z,100427.39
2018-09-14T18:28:53.478Z,100427.39
2018-09-14T18:31:24.629Z,100436.34
2018-09-14T18:33:55.588Z,100439.53
2018-09-14T18:36:31.853Z,100440.27
2018-09-14T18:39:02.792Z,100434.81
2018-09-14T18:41:34.757Z,100438.23
2018-09-14T18:44:05.697Z,100436.09
2018-09-14T18:46:36.757Z,100443.05
2018-09-14T18:49:08.014Z,100445.27
2018-09-14T18:51:39.377Z,100446.66
2018-09-14T18:54:10.562Z,100451.38
2018-09-14T18:56:41.469Z,100456.25
2018-09-14T18:59:12.498Z,100455.41
2018-09-14T19:01:44.184Z,100454.13
2018-09-14T19:04:15.383Z,100451.44
2018-09-14T19:06:46.539Z,100457.16
2018-09-14T19:09:17.508Z,100451.02
2018-09-14T19:14:32.628Z,100447.99
2018-09-14T19:17:03.601Z,100454.13
2018-09-14T19:19:34.661Z,100449.79
2018-09-14T19:22:05.602Z,100449.89
2018-09-14T19:24:37.214Z,100458.83
2018-09-14T19:27:08.429Z,100463.89
2018-09-14T19:29:39.599Z,100469.78
2018-09-14T19:32:10.538Z,100467.87
2018-09-14T19:34:41.502Z,100467.41
2018-09-14T19:37:12.634Z,100460.67
2018-09-14T19:39:43.559Z,100465.10
2018-09-14T19:42:14.503Z,100457.95
2018-09-14T19:44:45.706Z,100458.52
2018-09-14T19:47:16.561Z,100463.11
2018-09-14T19:49:47.606Z,100460.77
2018-09-14T19:52:18.604Z,100464.85
2018-09-14T19:54:49.517Z,100469.53
2018-09-14T19:57:20.548Z,100465.88
2018-09-14T19:59:51.531Z,100468.56
2018-09-14T20:02:22.513Z,100470.44
2018-09-14T20:04:53.521Z,100468.63
2018-09-14T20:07:24.709Z,100475.64
2018-09-14T20:09:55.780Z,100477.67
2018-09-14T20:12:26.793Z,100470.09
2018-09-14T20:14:58.015Z,100474.13
2018-09-14T20:20:09.223Z,100484.13
2018-09-14T20:22:40.777Z,100475.08
2018-09-14T20:25:12.807Z,100479.64
2018-09-14T20:27:43.657Z,100473.30
2018-09-14T20:30:15.435Z,100471.63
2018-09-14T20:32:46.553Z,100469.68
2018-09-14T20:35:17.521Z,100467.59
2018-09-14T20:37:49.206Z,100467.41
2018-09-14T20:40:20.716Z,100469.12
2018-09-14T20:42:51.776Z,100468.91
2018-09-14T20:45:23.476Z,100467.49
2018-09-14T20:47:54.631Z,100471.59
2018-09-14T20:50:25.553Z,100476.98
2018-09-14T20:52:57.493Z,100483.44
2018-09-14T20:55:28.545Z,100484.20
2018-09-14T20:57:59.709Z,100489.02
2018-09-14T21:03:15.565Z,100487.00
2018-09-14T21:05:46.558Z,100483.73
2018-09-14T21:08:17.760Z,100493.28
2018-09-14T21:10:48.589Z,100492.60
2018-09-14T21:13:19.567Z,100495.97
2018-09-14T21:15:50.498Z,100497.64
2018-09-14T21:21:05.010Z,100510.22
2018-09-14T21:23:36.389Z,100512.98
2018-09-14T21:26:07.546Z,100516.97
2018-09-14T21:28:38.680Z,100515.34
2018-09-14T21:31:09.613Z,100516.20
2018-09-14T21:33:40.755Z,100521.91
2018-09-14T21:36:12.272Z,100530.83
2018-09-14T21:38:42.692Z,100532.97
2018-09-14T21:41:14.271Z,100541.70
2018-09-14T21:43:44.679Z,100535.33
2018-09-14T21:46:15.762Z,100546.71
2018-09-14T21:48:46.845Z,100539.17
2018-09-14T21:51:18.002Z,100550.73
2018-09-14T21:53:49.381Z,100550.58
2018-09-14T21:56:20.772Z,100557.77
2018-09-14T21:58:51.654Z,100555.75
2018-09-14T22:01:27.749Z,100560.12
2018-09-14T22:04:00.560Z,100561.45
2018-09-14T22:06:32.293Z,100562.42
2018-09-14T22:11:47.691Z,100561.73
2018-09-14T22:14:19.237Z,100571.09
2018-09-14T22:16:50.501Z,100573.10
2018-09-14T22:19:21.710Z,100579.97
2018-09-14T22:24:34.689Z,100591.46
2018-09-14T22:27:05.790Z,100598.48
2018-09-14T22:29:37.604Z,100592.97
2018-09-14T22:32:09.241Z,100586.28
2018-09-14T22:34:40.594Z,100588.09
2018-09-14T22:37:12.029Z,100584.25
2018-09-14T22:39:43.560Z,100573.86
2018-09-14T22:42:14.743Z,100574.52
2018-09-14T22:44:46.033Z,100571.83
2018-09-14T22:47:17.492Z,100570.98
2018-09-14T22:49:48.580Z,100582.38
2018-09-14T22:52:19.776Z,100591.48
2018-09-14T22:54:51.211Z,100588.98
2018-09-14T22:57:22.470Z,100587.41
2018-09-14T22:59:53.629Z,100590.64
2018-09-14T23:02:24.690Z,100595.30
2018-09-14T23:04:55.802Z,100591.48
2018-09-14T23:07:27.046Z,100589.75
2018-09-14T23:09:58.501Z,100590.88
2018-09-14T23:12:29.740Z,100587.02
2018-09-14T23:15:01.380Z,100593.55
2018-09-14T23:17:32.473Z,100598.05
2018-09-14T23:20:03.801Z,100591.02
2018-09-14T23:22:35.397Z,100589.84
2018-09-14T23:25:06.734Z,100588.53
2018-09-14T23:27:38.337Z,100590.44
2018-09-14T23:30:09.646Z,100587.97
2018-09-14T23:32:41.237Z,100578.06
2018-09-14T23:35:12.652Z,100587.58
2018-09-14T23:37:44.481Z,100594.42
2018-09-14T23:40:15.718Z,100607.25
2018-09-14T23:42:46.839Z,100616.20
2018-09-14T23:45:17.778Z,100619.41
2018-09-14T23:47:49.198Z,100618.91
2018-09-14T23:50:20.539Z,100617.91
2018-09-14T23:52:51.530Z,100618.72
2018-09-14T23:55:22.496Z,100622.07
2018-09-14T23:57:53.576Z,100614.71
